sensor_id;sensor_type;location;lat;lon;timestamp;pressure;altitude;pressure_sealevel;temperature;humidity
38452;BME280;24231;52.514;13.438;2023-05-03T00:00:58;102166.01;;;12.63;35.76
38452;BME280;24231;52.514;13.438;2023-05-03T00:03:25;102165.79;;;12.83;35.51
38452;BME280;24231;52.514;13.438;2023-05-03T00:05:52;102167.42;;;12.40;36.41
38452;BME280;24231;52.514;13.438;2023-05-03T00:08:20;102168.45;;;12.25;36.66
38452;BME280;24231;52.514;13.438;2023-05-03T00:10:47;102165.16;;;12.84;35.52
38452;BME280;24231;52.514;13.438;2023-05-03T00:13:14;102162.53;;;13.16;34.69
38452;BME280;24231;52.514;13.438;2023-05-03T00:15:42;102166.69;;;13.31;34.48
38452;BME280;24231;52.514;13.438;2023-05-03T00:18:10;102166.90;;;13.17;34.74
38452;BME280;24231;52.514;13.438;2023-05-03T00:20:37;102176.05;;;10.92;38.56
38452;BME280;24231;52.514;13.438;2023-05-03T00:23:04;102176.02;;;12.16;36.38
38452;BME280;24231;52.514;13.438;2023-05-03T00:25:31;102171.29;;;12.43;36.17
38452;BME280;24231;52.514;13.438;2023-05-03T00:27:59;102169.96;;;12.23;36.65
38452;BME280;24231;52.514;13.438;2023-05-03T00:30:26;102173.43;;;11.81;37.32
38452;BME280;24231;52.514;13.438;2023-05-03T00:32:53;102169.37;;;11.97;37.14
38452;BME280;24231;52.514;13.438;2023-05-03T00:35:20;102171.18;;;10.76;39.10
38452;BME280;24231;52.514;13.438;2023-05-03T00:37:49;102172.61;;;12.35;36.49
38452;BME280;24231;52.514;13.438;2023-05-03T00:40:16;102173.12;;;10.93;38.93
38452;BME280;24231;52.514;13.438;2023-05-03T00:42:43;102174.41;;;12.00;37.12
38452;BME280;24231;52.514;13.438;2023-05-03T00:45:11;102179.94;;;11.72;38.08
38452;BME280;24231;52.514;13.438;2023-05-03T00:47:38;102180.79;;;12.00;37.57
38452;BME280;24231;52.514;13.438;2023-05-03T00:50:07;102179.69;;;12.26;37.27
38452;BME280;24231;52.514;13.438;2023-05-03T00:52:35;102180.58;;;12.18;37.86
38452;BME280;24231;52.514;13.438;2023-05-03T00:55:03;102174.06;;;11.14;39.18
38452;BME280;24231;52.514;13.438;2023-05-03T00:57:31;102175.33;;;11.84;38.06
38452;BME280;24231;52.514;13.438;2023-05-03T00:59:59;102172.89;;;10.89;39.87
38452;BME280;24231;52.514;13.438;2023-05-03T01:02:26;102168.19;;;11.35;39.16
38452;BME280;24231;52.514;13.438;2023-05-03T01:04:53;102172.80;;;12.33;37.39
38452;BME280;24231;52.514;13.438;2023-05-03T01:07:29;102175.33;;;12.02;37.94
38452;BME280;24231;52.514;13.438;2023-05-03T01:10:06;102170.67;;;11.64;38.67
38452;BME280;24231;52.514;13.438;2023-05-03T01:12:43;102174.51;;;10.15;41.47
38452;BME280;24231;52.514;13.438;2023-05-03T01:15:22;102172.17;;;11.11;40.07
38452;BME280;24231;52.514;13.438;2023-05-03T01:17:58;102173.75;;;11.77;39.17
38452;BME280;24231;52.514;13.438;2023-05-03T01:20:29;102173.02;;;11.75;39.06
38452;BME280;24231;52.514;13.438;2023-05-03T01:23:08;102170.13;;;11.32;39.97
38452;BME280;24231;52.514;13.438;2023-05-03T01:25:37;102178.98;;;9.59;42.74
38452;BME280;24231;52.514;13.438;2023-05-03T01:28:04;102181.07;;;9.85;42.61
38452;BME280;24231;52.514;13.438;2023-05-03T01:30:32;102180.95;;;11.17;40.30
38452;BME280;24231;52.514;13.438;2023-05-03T01:33:05;102178.81;;;10.97;40.32
38452;BME280;24231;52.514;13.438;2023-05-03T01:35:36;102180.10;;;11.16;40.64
38452;BME280;24231;52.514;13.438;2023-05-03T01:38:07;102183.11;;;11.11;40.40
38452;BME280;24231;52.514;13.438;2023-05-03T01:40:39;102182.74;;;10.85;40.68
38452;BME280;24231;52.514;13.438;2023-05-03T01:43:09;102182.77;;;10.49;41.39
38452;BME280;24231;52.514;13.438;2023-05-03T01:45:37;102178.24;;;11.02;40.95
38452;BME280;24231;52.514;13.438;2023-05-03T01:48:08;102179.42;;;11.01;40.93
38452;BME280;24231;52.514;13.438;2023-05-03T01:50:36;102181.73;;;10.73;41.23
38452;BME280;24231;52.514;13.438;2023-05-03T01:53:03;102183.92;;;10.38;41.83
38452;BME280;24231;52.514;13.438;2023-05-03T01:55:40;102180.47;;;11.03;40.63
38452;BME280;24231;52.514;13.438;2023-05-03T01:58:07;102180.53;;;10.76;41.58
38452;BME280;24231;52.514;13.438;2023-05-03T02:00:35;102182.18;;;11.05;40.65
38452;BME280;24231;52.514;13.438;2023-05-03T02:03:03;102186.13;;;9.43;43.93
38452;BME280;24231;52.514;13.438;2023-05-03T02:05:30;102183.79;;;9.40;44.06
38452;BME280;24231;52.514;13.438;2023-05-03T02:07:57;102186.64;;;10.11;42.99
38452;BME280;24231;52.514;13.438;2023-05-03T02:10:24;102190.88;;;10.66;41.49
38452;BME280;24231;52.514;13.438;2023-05-03T02:12:52;102190.20;;;10.25;42.09
38452;BME280;24231;52.514;13.438;2023-05-03T02:15:19;102189.80;;;10.05;42.45
38452;BME280;24231;52.514;13.438;2023-05-03T02:17:47;102190.79;;;10.80;41.15
38452;BME280;24231;52.514;13.438;2023-05-03T02:20:15;102195.34;;;9.45;44.24
38452;BME280;24231;52.514;13.438;2023-05-03T02:22:42;102196.75;;;9.46;44.19
38452;BME280;24231;52.514;13.438;2023-05-03T02:25:10;102198.94;;;9.85;43.58
38452;BME280;24231;52.514;13.438;2023-05-03T02:27:37;102201.16;;;9.33;44.03
38452;BME280;24231;52.514;13.438;2023-05-03T02:30:06;102203.76;;;8.86;45.17
38452;BME280;24231;52.514;13.438;2023-05-03T02:32:33;102205.62;;;9.01;44.64
38452;BME280;24231;52.514;13.438;2023-05-03T02:35:00;102206.66;;;9.31;43.83
38452;BME280;24231;52.514;13.438;2023-05-03T02:37:28;102206.42;;;9.64;43.16
38452;BME280;24231;52.514;13.438;2023-05-03T02:39:55;102215.13;;;8.74;45.52
38452;BME280;24231;52.514;13.438;2023-05-03T02:42:22;102213.32;;;9.58;44.14
38452;BME280;24231;52.514;13.438;2023-05-03T02:44:49;102213.62;;;9.93;42.99
38452;BME280;24231;52.514;13.438;2023-05-03T02:47:17;102214.88;;;10.07;42.90
38452;BME280;24231;52.514;13.438;2023-05-03T02:49:45;102216.71;;;9.04;45.27
38452;BME280;24231;52.514;13.438;2023-05-03T02:52:13;102218.12;;;9.11;44.66
38452;BME280;24231;52.514;13.438;2023-05-03T02:54:40;102225.52;;;8.96;45.42
38452;BME280;24231;52.514;13.438;2023-05-03T02:57:07;102220.96;;;9.55;44.06
38452;BME280;24231;52.514;13.438;2023-05-03T02:59:35;102222.30;;;9.82;43.70
38452;BME280;24231;52.514;13.438;2023-05-03T03:02:02;102221.50;;;9.54;43.84
38452;BME280;24231;52.514;13.438;2023-05-03T03:04:29;102232.71;;;9.01;45.21
38452;BME280;24231;52.514;13.438;2023-05-03T03:06:57;102230.49;;;9.43;44.09
38452;BME280;24231;52.514;13.438;2023-05-03T03:09:25;102228.57;;;10.10;43.06
38452;BME280;24231;52.514;13.438;2023-05-03T03:11:53;102236.99;;;8.44;46.19
38452;BME280;24231;52.514;13.438;2023-05-03T03:14:20;102234.23;;;8.71;45.71
38452;BME280;24231;52.514;13.438;2023-05-03T03:16:50;102226.91;;;9.69;43.47
38452;BME280;24231;52.514;13.438;2023-05-03T03:19:17;102229.45;;;9.24;43.87
38452;BME280;24231;52.514;13.438;2023-05-03T03:21:44;102231.00;;;10.13;42.85
38452;BME280;24231;52.514;13.438;2023-05-03T03:24:12;102237.23;;;9.02;44.88
38452;BME280;24231;52.514;13.438;2023-05-03T03:26:39;102235.91;;;10.00;43.29
38452;BME280;24231;52.514;13.438;2023-05-03T03:29:07;102239.59;;;9.93;42.77
38452;BME280;24231;52.514;13.438;2023-05-03T03:31:34;102243.18;;;9.77;43.66
38452;BME280;24231;52.514;13.438;2023-05-03T03:34:01;102251.04;;;8.60;45.80
38452;BME280;24231;52.514;13.438;2023-05-03T03:36:28;102249.28;;;8.88;45.26
38452;BME280;24231;52.514;13.438;2023-05-03T03:38:56;102247.21;;;9.27;44.73
38452;BME280;24231;52.514;13.438;2023-05-03T03:41:23;102252.60;;;9.00;45.48
38452;BME280;24231;52.514;13.438;2023-05-03T03:43:51;102259.02;;;8.20;47.11
38452;BME280;24231;52.514;13.438;2023-05-03T03:46:18;102259.72;;;8.62;46.16
38452;BME280;24231;52.514;13.438;2023-05-03T03:48:46;102260.85;;;8.45;46.31
38452;BME280;24231;52.514;13.438;2023-05-03T03:51:13;102257.50;;;10.15;43.05
38452;BME280;24231;52.514;13.438;2023-05-03T03:53:41;102255.47;;;10.07;42.69
38452;BME280;24231;52.514;13.438;2023-05-03T03:56:08;102257.99;;;9.86;43.90
38452;BME280;24231;52.514;13.438;2023-05-03T03:58:35;102268.04;;;8.39;46.24
38452;BME280;24231;52.514;13.438;2023-05-03T04:01:03;102260.42;;;10.03;42.86
38452;BME280;24231;52.514;13.438;2023-05-03T04:03:30;102269.22;;;8.56;45.81
38452;BME280;24231;52.514;13.438;2023-05-03T04:05:57;102266.40;;;10.11;43.27
38452;BME280;24231;52.514;13.438;2023-05-03T04:08:25;102269.98;;;10.59;42.08
38452;BME280;24231;52.514;13.438;2023-05-03T04:10:52;102271.11;;;10.49;42.14
38452;BME280;24231;52.514;13.438;2023-05-03T04:13:20;102273.31;;;10.05;43.00
38452;BME280;24231;52.514;13.438;2023-05-03T04:15:47;102280.62;;;9.66;43.86
38452;BME280;24231;52.514;13.438;2023-05-03T04:18:15;102284.19;;;11.25;40.81
38452;BME280;24231;52.514;13.438;2023-05-03T04:20:42;102283.36;;;11.41;40.10
38452;BME280;24231;52.514;13.438;2023-05-03T04:23:09;102285.15;;;11.28;39.93
38452;BME280;24231;52.514;13.438;2023-05-03T04:25:37;102287.85;;;9.89;42.89
38452;BME280;24231;52.514;13.438;2023-05-03T04:28:04;102289.62;;;10.04;42.39
38452;BME280;24231;52.514;13.438;2023-05-03T04:30:33;102291.81;;;11.09;40.20
38452;BME280;24231;52.514;13.438;2023-05-03T04:33:00;102296.03;;;10.99;40.26
38452;BME280;24231;52.514;13.438;2023-05-03T04:35:27;102294.93;;;11.51;39.30
38452;BME280;24231;52.514;13.438;2023-05-03T04:37:55;102297.52;;;12.10;38.18
38452;BME280;24231;52.514;13.438;2023-05-03T04:40:22;102299.41;;;12.77;36.94
38452;BME280;24231;52.514;13.438;2023-05-03T04:42:49;102298.77;;;12.77;36.84
38452;BME280;24231;52.514;13.438;2023-05-03T04:45:16;102302.75;;;12.86;36.74
38452;BME280;24231;52.514;13.438;2023-05-03T04:47:43;102305.38;;;13.22;36.19
38452;BME280;24231;52.514;13.438;2023-05-03T04:50:10;102304.12;;;13.26;35.83
38452;BME280;24231;52.514;13.438;2023-05-03T04:52:38;102300.88;;;13.75;35.11
38452;BME280;24231;52.514;13.438;2023-05-03T04:55:06;102302.35;;;13.63;34.98
38452;BME280;24231;52.514;13.438;2023-05-03T04:57:34;102305.59;;;14.72;33.41
38452;BME280;24231;52.514;13.438;2023-05-03T05:00:01;102303.35;;;14.82;33.22
38452;BME280;24231;52.514;13.438;2023-05-03T05:02:29;102303.01;;;14.67;33.19
38452;BME280;24231;52.514;13.438;2023-05-03T05:04:57;102305.33;;;14.85;32.69
38452;BME280;24231;52.514;13.438;2023-05-03T05:07:24;102307.07;;;14.81;32.80
38452;BME280;24231;52.514;13.438;2023-05-03T05:09:52;102304.40;;;15.08;32.12
38452;BME280;24231;52.514;13.438;2023-05-03T05:12:20;102303.52;;;15.13;31.99
38452;BME280;24231;52.514;13.438;2023-05-03T05:14:47;102302.35;;;15.82;30.85
38452;BME280;24231;52.514;13.438;2023-05-03T05:17:23;102299.60;;;15.38;31.67
38452;BME280;24231;52.514;13.438;2023-05-03T05:19:51;102300.65;;;16.10;30.58
38452;BME280;24231;52.514;13.438;2023-05-03T05:22:18;102304.16;;;16.81;29.65
38452;BME280;24231;52.514;13.438;2023-05-03T05:24:46;102307.01;;;16.84;29.69
38452;BME280;24231;52.514;13.438;2023-05-03T05:27:14;102307.61;;;16.57;29.63
38452;BME280;24231;52.514;13.438;2023-05-03T05:29:42;102311.04;;;17.37;28.81
38452;BME280;24231;52.514;13.438;2023-05-03T05:32:09;102310.89;;;17.13;29.02
38452;BME280;24231;52.514;13.438;2023-05-03T05:34:36;102316.33;;;17.48;28.87
38452;BME280;24231;52.514;13.438;2023-05-03T05:37:03;102316.82;;;17.10;28.65
38452;BME280;24231;52.514;13.438;2023-05-03T05:39:32;102322.63;;;17.19;28.94
38452;BME280;24231;52.514;13.438;2023-05-03T05:42:01;102317.92;;;18.55;27.41
38452;BME280;24231;52.514;13.438;2023-05-03T05:44:31;102318.45;;;18.06;27.52
38452;BME280;24231;52.514;13.438;2023-05-03T05:46:58;102318.70;;;18.20;27.91
38452;BME280;24231;52.514;13.438;2023-05-03T05:49:25;102324.90;;;17.66;28.39
38452;BME280;24231;52.514;13.438;2023-05-03T05:51:54;102326.33;;;17.70;28.23
38452;BME280;24231;52.514;13.438;2023-05-03T05:54:21;102327.96;;;17.72;28.40
38452;BME280;24231;52.514;13.438;2023-05-03T05:56:48;102335.43;;;17.16;29.24
38452;BME280;24231;52.514;13.438;2023-05-03T05:59:15;102335.94;;;16.67;29.36
38452;BME280;24231;52.514;13.438;2023-05-03T06:01:42;102339.81;;;17.34;29.30
38452;BME280;24231;52.514;13.438;2023-05-03T06:04:09;102339.80;;;17.45;28.99
38452;BME280;24231;52.514;13.438;2023-05-03T06:06:37;102337.34;;;17.62;28.61
38452;BME280;24231;52.514;13.438;2023-05-03T06:09:05;102340.57;;;17.49;29.07
38452;BME280;24231;52.514;13.438;2023-05-03T06:11:32;102333.92;;;17.87;28.32
38452;BME280;24231;52.514;13.438;2023-05-03T06:13:59;102336.09;;;17.93;28.14
38452;BME280;24231;52.514;13.438;2023-05-03T06:16:26;102340.66;;;18.13;27.85
38452;BME280;24231;52.514;13.438;2023-05-03T06:18:53;102340.87;;;18.21;27.89
38452;BME280;24231;52.514;13.438;2023-05-03T06:21:21;102342.56;;;18.05;27.95
38452;BME280;24231;52.514;13.438;2023-05-03T06:23:47;102342.62;;;18.11;28.31
38452;BME280;24231;52.514;13.438;2023-05-03T06:26:14;102343.54;;;18.28;28.04
38452;BME280;24231;52.514;13.438;2023-05-03T06:28:42;102346.34;;;18.78;27.36
38452;BME280;24231;52.514;13.438;2023-05-03T06:31:09;102348.07;;;18.99;26.29
38452;BME280;24231;52.514;13.438;2023-05-03T06:33:51;102346.15;;;19.27;26.32
38452;BME280;24231;52.514;13.438;2023-05-03T06:36:18;102345.35;;;19.13;25.90
38452;BME280;24231;52.514;13.438;2023-05-03T06:38:46;102346.75;;;19.20;25.36
38452;BME280;24231;52.514;13.438;2023-05-03T06:41:13;102348.98;;;19.62;25.49
38452;BME280;24231;52.514;13.438;2023-05-03T06:43:40;102348.31;;;19.97;25.03
38452;BME280;24231;52.514;13.438;2023-05-03T06:46:07;102343.06;;;20.43;24.78
38452;BME280;24231;52.514;13.438;2023-05-03T06:48:34;102342.34;;;20.73;24.37
38452;BME280;24231;52.514;13.438;2023-05-03T06:51:01;102345.76;;;20.05;24.84
38452;BME280;24231;52.514;13.438;2023-05-03T06:53:28;102346.54;;;19.21;25.60
38452;BME280;24231;52.514;13.438;2023-05-03T06:55:55;102347.25;;;19.43;25.40
38452;BME280;24231;52.514;13.438;2023-05-03T06:58:23;102345.05;;;19.23;25.26
38452;BME280;24231;52.514;13.438;2023-05-03T07:00:52;102347.59;;;19.48;25.04
38452;BME280;24231;52.514;13.438;2023-05-03T07:03:19;102348.74;;;19.29;25.11
38452;BME280;24231;52.514;13.438;2023-05-03T07:05:47;102348.14;;;20.01;24.58
38452;BME280;24231;52.514;13.438;2023-05-03T07:08:14;102350.29;;;19.15;25.51
38452;BME280;24231;52.514;13.438;2023-05-03T07:10:42;102347.31;;;20.31;24.14
38452;BME280;24231;52.514;13.438;2023-05-03T07:13:09;102347.12;;;18.78;25.17
38452;BME280;24231;52.514;13.438;2023-05-03T07:15:36;102352.04;;;19.52;24.58
38452;BME280;24231;52.514;13.438;2023-05-03T07:18:03;102353.34;;;19.86;24.71
38452;BME280;24231;52.514;13.438;2023-05-03T07:20:31;102349.68;;;20.45;23.67
38452;BME280;24231;52.514;13.438;2023-05-03T07:22:58;102346.62;;;20.56;23.89
38452;BME280;24231;52.514;13.438;2023-05-03T07:25:25;102345.89;;;20.89;23.34
38452;BME280;24231;52.514;13.438;2023-05-03T07:27:52;102349.91;;;20.23;23.68
38452;BME280;24231;52.514;13.438;2023-05-03T07:30:20;102352.57;;;20.72;22.75
38452;BME280;24231;52.514;13.438;2023-05-03T07:32:50;102358.69;;;21.20;22.26
38452;BME280;24231;52.514;13.438;2023-05-03T07:35:18;102357.78;;;21.08;22.55
38452;BME280;24231;52.514;13.438;2023-05-03T07:37:45;102353.77;;;21.09;22.45
38452;BME280;24231;52.514;13.438;2023-05-03T07:40:12;102351.88;;;21.17;21.98
38452;BME280;24231;52.514;13.438;2023-05-03T07:42:38;102348.34;;;20.65;23.06
38452;BME280;24231;52.514;13.438;2023-05-03T07:45:07;102346.49;;;19.00;24.00
38452;BME280;24231;52.514;13.438;2023-05-03T07:47:34;102346.04;;;19.97;23.73
38452;BME280;24231;52.514;13.438;2023-05-03T07:50:01;102345.84;;;20.45;23.19
38452;BME280;24231;52.514;13.438;2023-05-03T07:52:28;102346.43;;;20.90;22.72
38452;BME280;24231;52.514;13.438;2023-05-03T07:54:55;102347.72;;;21.41;22.60
38452;BME280;24231;52.514;13.438;2023-05-03T07:57:22;102346.19;;;21.45;21.96
38452;BME280;24231;52.514;13.438;2023-05-03T07:59:49;102347.38;;;21.47;22.23
38452;BME280;24231;52.514;13.438;2023-05-03T08:02:16;102344.97;;;21.50;21.61
38452;BME280;24231;52.514;13.438;2023-05-03T08:04:43;102345.91;;;21.56;21.32
38452;BME280;24231;52.514;13.438;2023-05-03T08:07:10;102337.85;;;21.94;21.16
38452;BME280;24231;52.514;13.438;2023-05-03T08:09:36;102338.42;;;22.07;21.68
38452;BME280;24231;52.514;13.438;2023-05-03T08:12:04;102336.25;;;21.80;21.86
38452;BME280;24231;52.514;13.438;2023-05-03T08:14:31;102339.87;;;21.47;21.71
38452;BME280;24231;52.514;13.438;2023-05-03T08:16:58;102332.94;;;21.98;21.38
38452;BME280;24231;52.514;13.438;2023-05-03T08:19:26;102335.14;;;20.32;22.81
38452;BME280;24231;52.514;13.438;2023-05-03T08:21:53;102332.42;;;20.14;23.05
38452;BME280;24231;52.514;13.438;2023-05-03T08:24:20;102328.79;;;20.68;23.61
38452;BME280;24231;52.514;13.438;2023-05-03T08:26:50;102329.74;;;20.35;23.39
38452;BME280;24231;52.514;13.438;2023-05-03T08:29:17;102330.88;;;20.94;23.42
38452;BME280;24231;52.514;13.438;2023-05-03T08:31:44;102334.80;;;21.47;22.49
38452;BME280;24231;52.514;13.438;2023-05-03T08:34:11;102333.07;;;21.66;22.13
38452;BME280;24231;52.514;13.438;2023-05-03T08:36:37;102332.10;;;21.94;21.92
38452;BME280;24231;52.514;13.438;2023-05-03T08:39:04;102332.73;;;22.05;21.54
38452;BME280;24231;52.514;13.438;2023-05-03T08:41:32;102332.18;;;21.88;21.10
38452;BME280;24231;52.514;13.438;2023-05-03T08:44:00;102332.50;;;21.93;21.01
38452;BME280;24231;52.514;13.438;2023-05-03T08:46:27;102341.79;;;21.02;22.62
38452;BME280;24231;52.514;13.438;2023-05-03T08:48:55;102341.82;;;21.38;21.98
38452;BME280;24231;52.514;13.438;2023-05-03T08:51:23;102341.70;;;20.87;22.01
38452;BME280;24231;52.514;13.438;2023-05-03T08:53:51;102347.01;;;21.38;22.10
38452;BME280;24231;52.514;13.438;2023-05-03T08:56:24;102342.37;;;22.14;21.31
38452;BME280;24231;52.514;13.438;2023-05-03T08:58:54;102348.24;;;21.43;21.68
38452;BME280;24231;52.514;13.438;2023-05-03T09:01:22;102350.55;;;21.21;21.80
38452;BME280;24231;52.514;13.438;2023-05-03T09:03:49;102347.68;;;21.45;21.99
38452;BME280;24231;52.514;13.438;2023-05-03T09:06:19;102344.15;;;20.76;22.52
38452;BME280;24231;52.514;13.438;2023-05-03T09:08:46;102343.76;;;20.91;22.33
38452;BME280;24231;52.514;13.438;2023-05-03T09:11:21;102341.50;;;20.89;22.91
38452;BME280;24231;52.514;13.438;2023-05-03T09:13:49;102344.65;;;19.95;23.59
38452;BME280;24231;52.514;13.438;2023-05-03T09:16:25;102344.84;;;20.42;23.58
38452;BME280;24231;52.514;13.438;2023-05-03T09:18:56;102345.98;;;20.73;23.94
38452;BME280;24231;52.514;13.438;2023-05-03T09:21:24;102346.73;;;21.57;22.29
38452;BME280;24231;52.514;13.438;2023-05-03T09:23:51;102349.15;;;21.04;23.02
38452;BME280;24231;52.514;13.438;2023-05-03T09:26:28;102346.24;;;19.10;23.55
38452;BME280;24231;52.514;13.438;2023-05-03T09:28:57;102343.81;;;20.32;23.83
38452;BME280;24231;52.514;13.438;2023-05-03T09:31:28;102347.55;;;19.87;23.61
38452;BME280;24231;52.514;13.438;2023-05-03T09:33:56;102346.37;;;19.15;24.43
38452;BME280;24231;52.514;13.438;2023-05-03T09:36:24;102347.58;;;19.67;24.34
38452;BME280;24231;52.514;13.438;2023-05-03T09:38:51;102352.24;;;20.07;24.14
38452;BME280;24231;52.514;13.438;2023-05-03T09:41:26;102355.31;;;19.34;23.47
38452;BME280;24231;52.514;13.438;2023-05-03T09:43:53;102349.42;;;19.73;23.57
38452;BME280;24231;52.514;13.438;2023-05-03T09:46:21;102347.56;;;19.57;23.73
38452;BME280;24231;52.514;13.438;2023-05-03T09:48:48;102346.16;;;18.99;24.10
38452;BME280;24231;52.514;13.438;2023-05-03T09:51:15;102338.91;;;20.34;23.03
38452;BME280;24231;52.514;13.438;2023-05-03T09:53:42;102338.15;;;20.43;23.47
38452;BME280;24231;52.514;13.438;2023-05-03T09:56:09;102338.89;;;20.47;22.75
38452;BME280;24231;52.514;13.438;2023-05-03T09:58:38;102338.33;;;20.48;23.44
38452;BME280;24231;52.514;13.438;2023-05-03T10:01:05;102339.60;;;20.56;23.05
38452;BME280;24231;52.514;13.438;2023-05-03T10:03:37;102337.57;;;20.76;22.95
38452;BME280;24231;52.514;13.438;2023-05-03T10:06:09;102333.38;;;20.71;22.37
38452;BME280;24231;52.514;13.438;2023-05-03T10:08:40;102329.20;;;20.40;22.90
38452;BME280;24231;52.514;13.438;2023-05-03T10:11:08;102336.35;;;19.28;23.44
38452;BME280;24231;52.514;13.438;2023-05-03T10:13:37;102332.02;;;19.44;23.76
38452;BME280;24231;52.514;13.438;2023-05-03T10:16:06;102331.07;;;19.71;24.29
38452;BME280;24231;52.514;13.438;2023-05-03T10:18:38;102330.59;;;19.64;23.84
38452;BME280;24231;52.514;13.438;2023-05-03T10:21:13;102330.62;;;20.40;23.82
38452;BME280;24231;52.514;13.438;2023-05-03T10:24:09;102329.15;;;20.53;22.05
38452;BME280;24231;52.514;13.438;2023-05-03T10:26:36;102326.93;;;19.85;23.82
38452;BME280;24231;52.514;13.438;2023-05-03T10:29:05;102331.03;;;18.77;23.80
38452;BME280;24231;52.514;13.438;2023-05-03T10:31:47;102330.77;;;21.12;23.17
38452;BME280;24231;52.514;13.438;2023-05-03T10:34:23;102326.72;;;20.81;22.66
38452;BME280;24231;52.514;13.438;2023-05-03T10:36:51;102325.50;;;21.50;22.29
38452;BME280;24231;52.514;13.438;2023-05-03T10:39:19;102318.67;;;20.01;22.98
38452;BME280;24231;52.514;13.438;2023-05-03T10:41:57;102317.95;;;20.39;22.83
38452;BME280;24231;52.514;13.438;2023-05-03T10:44:25;102318.51;;;19.27;24.23
38452;BME280;24231;52.514;13.438;2023-05-03T10:46:53;102321.73;;;19.86;23.61
38452;BME280;24231;52.514;13.438;2023-05-03T10:49:22;102318.02;;;20.23;23.42
38452;BME280;24231;52.514;13.438;2023-05-03T10:51:50;102319.13;;;20.00;23.48
38452;BME280;24231;52.514;13.438;2023-05-03T10:54:27;102310.94;;;18.83;23.86
38452;BME280;24231;52.514;13.438;2023-05-03T10:56:55;102311.58;;;19.79;22.67
38452;BME280;24231;52.514;13.438;2023-05-03T10:59:23;102309.11;;;19.61;24.07
38452;BME280;24231;52.514;13.438;2023-05-03T11:01:51;102312.29;;;19.62;23.65
38452;BME280;24231;52.514;13.438;2023-05-03T11:04:37;102306.81;;;18.98;23.98
38452;BME280;24231;52.514;13.438;2023-05-03T11:07:08;102308.48;;;18.97;24.33
38452;BME280;24231;52.514;13.438;2023-05-03T11:09:35;102311.12;;;19.63;23.78
38452;BME280;24231;52.514;13.438;2023-05-03T11:12:04;102308.39;;;19.12;24.40
38452;BME280;24231;52.514;13.438;2023-05-03T11:14:42;102304.51;;;19.17;25.12
38452;BME280;24231;52.514;13.438;2023-05-03T11:17:09;102303.38;;;19.21;24.20
38452;BME280;24231;52.514;13.438;2023-05-03T11:19:36;102299.09;;;19.53;23.96
38452;BME280;24231;52.514;13.438;2023-05-03T11:22:03;102297.84;;;19.96;22.79
38452;BME280;24231;52.514;13.438;2023-05-03T11:24:31;102304.08;;;18.43;24.42
38452;BME280;24231;52.514;13.438;2023-05-03T11:27:10;102299.02;;;18.67;24.95
38452;BME280;24231;52.514;13.438;2023-05-03T11:29:38;102296.90;;;18.81;24.57
38452;BME280;24231;52.514;13.438;2023-05-03T11:32:07;102293.76;;;19.68;24.32
38452;BME280;24231;52.514;13.438;2023-05-03T11:34:34;102293.33;;;19.58;24.35
38452;BME280;24231;52.514;13.438;2023-05-03T11:37:02;102293.08;;;19.39;24.03
38452;BME280;24231;52.514;13.438;2023-05-03T11:39:31;102297.24;;;18.44;25.24
38452;BME280;24231;52.514;13.438;2023-05-03T11:42:08;102291.37;;;19.30;23.26
38452;BME280;24231;52.514;13.438;2023-05-03T11:44:36;102287.29;;;19.05;22.70
38452;BME280;24231;52.514;13.438;2023-05-03T11:47:03;102288.73;;;16.79;25.49
38452;BME280;24231;52.514;13.438;2023-05-03T11:49:31;102289.86;;;17.07;26.80
38452;BME280;24231;52.514;13.438;2023-05-03T11:51:58;102281.21;;;17.51;26.19
38452;BME280;24231;52.514;13.438;2023-05-03T11:54:25;102277.22;;;18.07;25.90
38452;BME280;24231;52.514;13.438;2023-05-03T11:56:54;102271.42;;;19.89;24.21
38452;BME280;24231;52.514;13.438;2023-05-03T11:59:33;102271.16;;;20.11;23.27
38452;BME280;24231;52.514;13.438;2023-05-03T12:02:01;102268.80;;;20.01;24.41
38452;BME280;24231;52.514;13.438;2023-05-03T12:04:29;102269.95;;;20.14;23.43
38452;BME280;24231;52.514;13.438;2023-05-03T12:06:56;102273.53;;;18.40;24.81
38452;BME280;24231;52.514;13.438;2023-05-03T12:09:24;102275.03;;;18.42;25.12
38452;BME280;24231;52.514;13.438;2023-05-03T12:11:51;102274.44;;;19.04;24.83
38452;BME280;24231;52.514;13.438;2023-05-03T12:14:18;102269.89;;;19.64;24.45
38452;BME280;24231;52.514;13.438;2023-05-03T12:16:46;102270.21;;;18.82;24.30
38452;BME280;24231;52.514;13.438;2023-05-03T12:19:23;102265.49;;;18.44;24.79
38452;BME280;24231;52.514;13.438;2023-05-03T12:21:51;102267.17;;;17.54;26.59
38452;BME280;24231;52.514;13.438;2023-05-03T12:24:19;102265.26;;;17.64;26.54
38452;BME280;24231;52.514;13.438;2023-05-03T12:26:47;102261.75;;;19.47;24.40
38452;BME280;24231;52.514;13.438;2023-05-03T12:29:14;102261.62;;;19.61;24.45
38452;BME280;24231;52.514;13.438;2023-05-03T12:31:43;102259.23;;;19.53;24.31
38452;BME280;24231;52.514;13.438;2023-05-03T12:34:11;102255.67;;;19.23;24.11
38452;BME280;24231;52.514;13.438;2023-05-03T12:36:39;102253.75;;;19.26;24.13
38452;BME280;24231;52.514;13.438;2023-05-03T12:39:05;102257.52;;;18.80;23.98
38452;BME280;24231;52.514;13.438;2023-05-03T12:41:33;102255.58;;;18.61;25.21
38452;BME280;24231;52.514;13.438;2023-05-03T12:44:01;102252.22;;;19.11;23.98
38452;BME280;24231;52.514;13.438;2023-05-03T12:46:28;102252.74;;;18.73;25.18